createdAt,value
2018-04-22T00:00:41.346Z,101530.27
2018-04-22T00:03:10.751Z,101531.17
2018-04-22T00:05:39.370Z,101529.19
2018-04-22T00:08:07.725Z,101535.09
2018-04-22T00:10:37.315Z,101530.96
2018-04-22T00:13:06.157Z,101529.83
2018-04-22T00:15:34.653Z,101525.62
2018-04-22T00:18:03.530Z,101524.00
2018-04-22T00:20:34.737Z,101526.16
2018-04-22T00:23:03.128Z,101527.44
2018-04-22T00:25:32.028Z,101519.98
2018-04-22T00:28:12.026Z,101512.48
2018-04-22T00:30:41.086Z,101520.73
2018-04-22T00:33:10.120Z,101525.00
2018-04-22T00:35:38.647Z,101517.88
2018-04-22T00:38:07.004Z,101517.09
2018-04-22T00:40:35.356Z,101522.66
2018-04-22T00:43:11.165Z,101518.53
2018-04-22T00:45:40.206Z,101518.47
2018-04-22T00:48:09.887Z,101513.89
2018-04-22T00:50:38.358Z,101516.44
2018-04-22T00:53:07.475Z,101520.88
2018-04-22T00:55:36.488Z,101517.98
2018-04-22T00:58:06.572Z,101518.47
2018-04-22T01:00:35.332Z,101515.56
2018-04-22T01:03:03.684Z,101512.30
2018-04-22T01:05:32.410Z,101509.46
2018-04-22T01:08:01.302Z,101503.61
2018-04-22T01:10:34.386Z,101507.95
2018-04-22T01:13:03.060Z,101510.86
2018-04-22T01:15:32.066Z,101512.61
2018-04-22T01:18:04.560Z,101516.51
2018-04-22T01:20:33.035Z,101518.56
2018-04-22T01:23:01.432Z,101506.36
2018-04-22T01:25:30.936Z,101518.63
2018-04-22T01:27:59.509Z,101519.60
2018-04-22T01:30:29.844Z,101519.20
2018-04-22T01:32:59.294Z,101517.61
2018-04-22T01:35:37.560Z,101516.08
2018-04-22T01:38:06.537Z,101517.48
2018-04-22T01:40:34.883Z,101518.42
2018-04-22T01:43:03.260Z,101513.88
2018-04-22T01:45:32.030Z,101510.59
2018-04-22T01:48:00.416Z,101512.45
2018-04-22T01:50:30.042Z,101507.05
2018-04-22T01:52:58.416Z,101509.69
2018-04-22T01:55:27.544Z,101502.17
2018-04-22T01:57:55.990Z,101509.38
2018-04-22T02:00:24.456Z,101500.17
2018-04-22T02:02:53.221Z,101505.34
2018-04-22T02:05:22.391Z,101499.42
2018-04-22T02:07:51.070Z,101495.63
2018-04-22T02:10:20.062Z,101491.80
2018-04-22T02:12:48.548Z,101491.41
2018-04-22T02:15:17.034Z,101490.73
2018-04-22T02:17:45.859Z,101485.78
2018-04-22T02:20:14.251Z,101486.70
2018-04-22T02:22:42.963Z,101485.94
2018-04-22T02:25:11.469Z,101489.43
2018-04-22T02:27:39.869Z,101489.50
2018-04-22T02:30:08.470Z,101488.17
2018-04-22T02:32:37.784Z,101489.94
2018-04-22T02:35:06.857Z,101482.86
2018-04-22T02:37:36.715Z,101491.41
2018-04-22T02:40:06.516Z,101492.25
2018-04-22T02:42:34.854Z,101494.87
2018-04-22T02:45:03.647Z,101496.15
2018-04-22T02:47:31.995Z,101494.11
2018-04-22T02:50:01.931Z,101490.26
2018-04-22T02:52:30.279Z,101495.83
2018-04-22T02:54:58.613Z,101492.88
2018-04-22T02:57:27.603Z,101487.00
2018-04-22T02:59:56.142Z,101487.53
2018-04-22T03:02:24.487Z,101491.39
2018-04-22T03:04:52.831Z,101488.95
2018-04-22T03:07:21.351Z,101482.30
2018-04-22T03:09:49.850Z,101482.30
2018-04-22T03:12:19.478Z,101488.28
2018-04-22T03:14:47.955Z,101496.31
2018-04-22T03:17:17.143Z,101492.54
2018-04-22T03:19:45.525Z,101488.46
2018-04-22T03:22:13.895Z,101488.05
2018-04-22T03:24:43.016Z,101483.85
2018-04-22T03:27:11.446Z,101484.67
2018-04-22T03:29:39.942Z,101489.39
2018-04-22T03:32:08.360Z,101490.23
2018-04-22T03:34:37.583Z,101491.16
2018-04-22T03:37:05.936Z,101489.56
2018-04-22T03:39:34.738Z,101489.72
2018-04-22T03:42:03.114Z,101495.30
2018-04-22T03:44:31.544Z,101490.27
2018-04-22T03:46:59.971Z,101497.84
2018-04-22T03:49:28.324Z,101497.34
2018-04-22T03:51:57.013Z,101493.05
2018-04-22T03:54:26.296Z,101494.32
2018-04-22T03:56:55.303Z,101497.31
2018-04-22T03:59:24.744Z,101499.43
2018-04-22T04:01:53.105Z,101485.92
2018-04-22T04:04:21.439Z,101492.97
2018-04-22T04:06:49.994Z,101491.16
2018-04-22T04:09:18.352Z,101492.19
2018-04-22T04:11:46.696Z,101489.88
2018-04-22T04:14:15.106Z,101492.74
2018-04-22T04:16:44.709Z,101497.20
2018-04-22T04:19:25.349Z,101492.14
2018-04-22T04:25:25.398Z,101489.55
2018-04-22T04:27:54.114Z,101493.03
2018-04-22T04:30:22.713Z,101502.72
2018-04-22T04:32:51.588Z,101498.16
2018-04-22T04:35:20.692Z,101489.47
2018-04-22T04:37:49.849Z,101485.33
2018-04-22T04:40:20.591Z,101487.35
2018-04-22T04:42:49.658Z,101480.52
2018-04-22T04:45:19.509Z,101493.40
2018-04-22T04:47:47.985Z,101483.58
2018-04-22T04:50:16.637Z,101492.45
2018-04-22T04:52:45.422Z,101493.32
2018-04-22T04:55:13.876Z,101500.70
2018-04-22T04:57:42.656Z,101505.06
2018-04-22T05:00:11.567Z,101499.30
2018-04-22T05:02:40.395Z,101495.05
2018-04-22T05:05:08.930Z,101503.08
2018-04-22T05:07:37.660Z,101499.37
2018-04-22T05:10:06.022Z,101501.69
2018-04-22T05:12:35.454Z,101501.22
2018-04-22T05:15:04.160Z,101507.94
2018-04-22T05:17:32.947Z,101496.83
2018-04-22T05:20:01.868Z,101499.19
2018-04-22T05:22:30.699Z,101502.88
2018-04-22T05:24:59.046Z,101503.23
2018-04-22T05:27:27.434Z,101503.52
2018-04-22T05:29:55.938Z,101505.01
2018-04-22T05:32:24.939Z,101498.85
2018-04-22T05:34:53.319Z,101497.32
2018-04-22T05:37:22.108Z,101494.96
2018-04-22T05:39:50.601Z,101496.40
2018-04-22T05:42:18.936Z,101490.40
2018-04-22T05:44:47.448Z,101485.95
2018-04-22T05:47:15.795Z,101498.09
2018-04-22T05:49:44.462Z,101499.34
2018-04-22T05:52:12.804Z,101493.66
2018-04-22T05:54:41.157Z,101502.74
2018-04-22T05:57:09.637Z,101510.95
2018-04-22T05:59:38.292Z,101504.80
2018-04-22T06:02:06.775Z,101505.41
2018-04-22T06:04:35.162Z,101508.59
2018-04-22T06:07:04.080Z,101505.72
2018-04-22T06:09:32.621Z,101508.53
2018-04-22T06:12:01.107Z,101510.02
2018-04-22T06:14:29.459Z,101502.55
2018-04-22T06:16:57.814Z,101504.34
2018-04-22T06:19:26.263Z,101497.92
2018-04-22T06:21:55.765Z,101497.94
2018-04-22T06:24:24.276Z,101500.21
2018-04-22T06:26:52.866Z,101500.81
2018-04-22T06:29:22.307Z,101496.24
2018-04-22T06:31:51.672Z,101487.17
2018-04-22T06:34:20.465Z,101495.56
2018-04-22T06:36:50.757Z,101495.84
2018-04-22T06:39:19.376Z,101482.68
2018-04-22T06:41:48.271Z,101483.17
2018-04-22T06:44:16.624Z,101494.74
2018-04-22T06:46:44.973Z,101492.14
2018-04-22T06:49:13.645Z,101493.50
2018-04-22T06:51:42.004Z,101491.98
2018-04-22T06:54:10.440Z,101499.80
2018-04-22T06:56:39.507Z,101503.55
2018-04-22T06:59:08.422Z,101510.45
2018-04-22T07:01:36.778Z,101515.40
2018-04-22T07:04:05.259Z,101511.89
2018-04-22T07:06:34.036Z,101522.34
2018-04-22T07:09:02.424Z,101519.62
2018-04-22T07:11:30.930Z,101521.31
2018-04-22T07:13:59.312Z,101514.70
2018-04-22T07:16:28.387Z,101512.94
2018-04-22T07:18:56.778Z,101516.79
2018-04-22T07:21:26.280Z,101520.86
2018-04-22T07:23:55.172Z,101514.17
2018-04-22T07:26:23.898Z,101517.36
2018-04-22T07:28:52.580Z,101514.67
2018-04-22T07:31:21.360Z,101516.42
2018-04-22T07:33:49.727Z,101513.80
2018-04-22T07:36:18.788Z,101516.48
2018-04-22T07:38:47.554Z,101527.47
2018-04-22T07:41:16.025Z,101525.83
2018-04-22T07:43:45.284Z,101526.88
2018-04-22T07:46:14.499Z,101533.23
2018-04-22T07:48:42.875Z,101533.00
2018-04-22T07:51:11.258Z,101531.86
2018-04-22T07:53:39.944Z,101522.23
2018-04-22T07:56:08.495Z,101532.76
2018-04-22T07:58:36.899Z,101538.83
2018-04-22T08:01:05.293Z,101538.86
2018-04-22T08:03:33.768Z,101543.41
2018-04-22T08:06:02.121Z,101537.94
2018-04-22T08:08:30.844Z,101540.94
2018-04-22T08:10:59.319Z,101549.70
2018-04-22T08:13:27.799Z,101548.64
2018-04-22T08:15:56.159Z,101553.93
2018-04-22T08:18:24.976Z,101557.83
2018-04-22T08:20:53.343Z,101559.67
2018-04-22T08:23:21.687Z,101560.14
2018-04-22T08:25:50.037Z,101561.51
2018-04-22T08:28:18.474Z,101555.83
2018-04-22T08:30:47.112Z,101553.39
2018-04-22T08:33:16.237Z,101552.65
2018-04-22T08:35:45.325Z,101551.22
2018-04-22T08:38:14.373Z,101562.13
2018-04-22T08:40:42.844Z,101557.43
2018-04-22T08:43:12.064Z,101551.36
2018-04-22T08:45:40.990Z,101556.09
2018-04-22T08:48:09.427Z,101562.45
2018-04-22T08:50:38.140Z,101563.65
2018-04-22T08:53:06.541Z,101562.66
2018-04-22T08:55:35.175Z,101562.42
2018-04-22T08:58:03.564Z,101563.13
2018-04-22T09:00:32.336Z,101568.80
2018-04-22T09:03:00.716Z,101579.23
2018-04-22T09:05:29.084Z,101571.89
2018-04-22T09:07:57.870Z,101575.34
2018-04-22T09:10:26.437Z,101573.48
2018-04-22T09:12:55.232Z,101570.00
2018-04-22T09:15:23.879Z,101570.29
2018-04-22T09:17:53.445Z,101573.81
2018-04-22T09:20:22.266Z,101573.62
2018-04-22T09:22:51.017Z,101579.34
2018-04-22T09:25:19.653Z,101567.51
2018-04-22T09:27:48.019Z,101574.86
2018-04-22T09:30:16.894Z,101578.70
2018-04-22T09:32:46.355Z,101575.54
2018-04-22T09:35:15.437Z,101572.40
2018-04-22T09:37:43.827Z,101580.91
2018-04-22T09:40:13.273Z,101571.08
2018-04-22T09:42:41.630Z,101576.63
2018-04-22T09:45:11.465Z,101585.17
2018-04-22T09:47:40.187Z,101581.07
2018-04-22T09:50:08.613Z,101579.91
2018-04-22T09:52:37.535Z,101580.39
2018-04-22T09:55:07.602Z,101575.16
2018-04-22T09:57:37.067Z,101582.13
2018-04-22T10:00:06.432Z,101585.87
2018-04-22T10:02:35.480Z,101578.86
2018-04-22T10:05:08.275Z,101579.94
2018-04-22T10:07:37.681Z,101580.20
2018-04-22T10:10:07.435Z,101579.20
2018-04-22T10:12:38.190Z,101588.02
2018-04-22T10:15:06.683Z,101603.73
2018-04-22T10:17:35.295Z,101601.28
2018-04-22T10:20:05.697Z,101593.77
2018-04-22T10:22:35.046Z,101608.19
2018-04-22T10:25:04.844Z,101604.11
2018-04-22T10:27:33.644Z,101593.69
2018-04-22T10:30:02.717Z,101592.03
2018-04-22T10:32:34.147Z,101584.66
2018-04-22T10:35:02.783Z,101594.02
2018-04-22T10:37:32.187Z,101585.22
2018-04-22T10:40:03.785Z,101589.17
2018-04-22T10:42:32.916Z,101587.84
2018-04-22T10:45:01.405Z,101591.58
2018-04-22T10:47:29.767Z,101588.12
2018-04-22T10:49:59.897Z,101593.97
2018-04-22T10:52:29.703Z,101582.86
2018-04-22T10:54:58.989Z,101587.89
2018-04-22T10:57:27.975Z,101589.05
2018-04-22T10:59:56.808Z,101588.12
2018-04-22T11:02:28.522Z,101579.50
2018-04-22T11:04:58.437Z,101583.71
2018-04-22T11:07:26.823Z,101592.67
2018-04-22T11:09:56.133Z,101582.40
2018-04-22T11:12:24.816Z,101589.95
2018-04-22T11:14:54.076Z,101573.48
2018-04-22T11:17:22.715Z,101574.96
2018-04-22T11:19:51.627Z,101574.74
2018-04-22T11:22:21.723Z,101579.52
2018-04-22T11:24:52.083Z,101576.95
2018-04-22T11:27:23.277Z,101574.59
2018-04-22T11:29:52.098Z,101574.50
2018-04-22T11:32:20.515Z,101573.91
2018-04-22T11:34:48.889Z,101575.42
2018-04-22T11:37:17.383Z,101574.50
2018-04-22T11:39:47.171Z,101567.24
2018-04-22T11:42:15.933Z,101570.18
2018-04-22T11:44:44.654Z,101571.33
2018-04-22T11:47:13.729Z,101569.02
2018-04-22T11:49:42.361Z,101572.05
2018-04-22T11:52:10.775Z,101577.64
2018-04-22T11:54:42.533Z,101576.46
2018-04-22T11:57:12.618Z,101584.41
2018-04-22T12:02:16.859Z,101580.73
2018-04-22T12:04:45.712Z,101572.98
2018-04-22T12:07:23.343Z,101575.33
2018-04-22T12:09:57.775Z,101577.39
2018-04-22T12:12:27.051Z,101571.50
2018-04-22T12:17:34.265Z,101568.37
2018-04-22T12:22:48.493Z,101581.94
2018-04-22T12:28:04.389Z,101575.98
2018-04-22T12:30:40.179Z,101576.87
2018-04-22T12:35:45.045Z,101576.09
2018-04-22T12:38:19.578Z,101575.33
2018-04-22T12:40:48.303Z,101572.25
2018-04-22T12:43:18.020Z,101578.95
2018-04-22T12:45:46.761Z,101576.02
2018-04-22T12:48:15.139Z,101570.39
2018-04-22T12:50:44.232Z,101575.08
2018-04-22T12:53:13.137Z,101560.37
2018-04-22T12:55:41.605Z,101557.41
2018-04-22T12:58:10.276Z,101569.34
2018-04-22T13:00:38.637Z,101555.67
2018-04-22T13:03:07.366Z,101550.95
2018-04-22T13:05:36.107Z,101555.06
2018-04-22T13:08:04.768Z,101549.01
2018-04-22T13:10:33.163Z,101545.77
2018-04-22T13:13:01.531Z,101544.23
2018-04-22T13:15:30.860Z,101545.33
2018-04-22T13:17:59.260Z,101551.50
2018-04-22T13:20:27.726Z,101549.05
2018-04-22T13:22:56.884Z,101551.13
2018-04-22T13:25:25.429Z,101545.37
2018-04-22T13:27:54.149Z,101546.05
2018-04-22T13:30:22.964Z,101547.17
2018-04-22T13:32:51.680Z,101543.78
2018-04-22T13:35:20.031Z,101538.68
2018-04-22T13:37:48.384Z,101540.73
2018-04-22T13:40:17.137Z,101539.59
2018-04-22T13:42:45.515Z,101536.91
2018-04-22T13:45:13.868Z,101534.34
2018-04-22T13:47:42.375Z,101528.82
2018-04-22T13:50:11.132Z,101527.55
2018-04-22T13:52:40.660Z,101518.23
2018-04-22T13:55:09.430Z,101521.61
2018-04-22T13:57:39.011Z,101525.35
2018-04-22T14:00:07.390Z,101526.74
2018-04-22T14:02:36.170Z,101526.23
2018-04-22T14:05:04.587Z,101524.73
2018-04-22T14:07:32.948Z,101529.16
2018-04-22T14:10:01.394Z,101528.05
2018-04-22T14:12:29.774Z,101524.27
2018-04-22T14:14:58.586Z,101518.79
2018-04-22T14:17:27.348Z,101519.62
2018-04-22T14:19:55.936Z,101518.34
2018-04-22T14:22:24.657Z,101517.02
2018-04-22T14:24:56.247Z,101520.95
2018-04-22T14:27:24.659Z,101518.04
2018-04-22T14:29:54.144Z,101513.92
2018-04-22T14:32:22.735Z,101516.61
2018-04-22T14:34:51.160Z,101512.73
2018-04-22T14:37:19.513Z,101510.25
2018-04-22T14:39:48.300Z,101507.98
2018-04-22T14:42:16.881Z,101516.60
2018-04-22T14:44:58.377Z,101505.44
2018-04-22T14:47:26.772Z,101508.92
2018-04-22T14:49:55.458Z,101497.70
2018-04-22T14:52:24.067Z,101500.49
2018-04-22T14:54:52.472Z,101498.24
2018-04-22T14:57:21.131Z,101498.36
2018-04-22T14:59:50.195Z,101491.16
2018-04-22T15:02:18.861Z,101493.06
2018-04-22T15:04:48.536Z,101494.81
2018-04-22T15:07:17.255Z,101490.03
2018-04-22T15:09:46.327Z,101483.43
2018-04-22T15:12:15.001Z,101485.59
2018-04-22T15:14:44.166Z,101489.88
2018-04-22T15:17:12.524Z,101481.53
2018-04-22T15:19:40.883Z,101479.81
2018-04-22T15:22:09.384Z,101481.80
2018-04-22T15:24:38.305Z,101478.61
2018-04-22T15:27:10.143Z,101477.98
2018-04-22T15:29:38.916Z,101480.61
2018-04-22T15:32:07.280Z,101475.70
2018-04-22T15:34:35.639Z,101475.01
2018-04-22T15:37:04.016Z,101467.15
2018-04-22T15:39:32.383Z,101467.84
2018-04-22T15:42:00.885Z,101463.80
2018-04-22T15:44:29.394Z,101460.53
2018-04-22T15:46:58.394Z,101464.98
2018-04-22T15:49:26.953Z,101463.75
2018-04-22T15:51:55.880Z,101457.52
2018-04-22T15:54:25.231Z,101463.92
2018-04-22T15:56:54.294Z,101467.05
2018-04-22T15:59:23.240Z,101464.06
2018-04-22T16:01:51.695Z,101453.89
2018-04-22T16:04:21.169Z,101461.30
2018-04-22T16:06:49.563Z,101463.20
2018-04-22T16:09:18.022Z,101466.36
2018-04-22T16:11:46.918Z,101466.67
2018-04-22T16:14:16.577Z,101464.08
2018-04-22T16:16:45.791Z,101470.03
2018-04-22T16:19:14.580Z,101468.89
2018-04-22T16:21:43.298Z,101464.98
2018-04-22T16:24:11.655Z,101466.02
2018-04-22T16:26:40.683Z,101471.37
2018-04-22T16:29:09.505Z,101467.25
2018-04-22T16:31:38.790Z,101471.11
2018-04-22T16:34:07.178Z,101464.83
2018-04-22T16:36:37.412Z,101468.33
2018-04-22T16:39:07.203Z,101469.69
2018-04-22T16:41:40.273Z,101474.14
2018-04-22T16:44:10.939Z,101471.30
2018-04-22T16:46:43.617Z,101472.30
2018-04-22T16:49:14.460Z,101472.12
2018-04-22T16:51:43.828Z,101472.89
2018-04-22T16:54:12.790Z,101474.37
2018-04-22T16:56:41.660Z,101475.80
2018-04-22T16:59:10.765Z,101474.39
2018-04-22T17:01:39.572Z,101475.56
2018-04-22T17:04:08.160Z,101469.88
2018-04-22T17:06:36.612Z,101473.93
2018-04-22T17:09:05.948Z,101471.91
2018-04-22T17:11:34.869Z,101471.26
2018-04-22T17:14:03.244Z,101475.77
2018-04-22T17:16:31.653Z,101475.74
2018-04-22T17:19:00.549Z,101479.78
2018-04-22T17:21:29.000Z,101481.61
2018-04-22T17:23:57.766Z,101482.69
2018-04-22T17:26:26.631Z,101482.44
2018-04-22T17:28:55.766Z,101481.22
2018-04-22T17:31:24.146Z,101483.29
2018-04-22T17:33:52.501Z,101478.23
2018-04-22T17:36:21.203Z,101487.54
2018-04-22T17:38:49.698Z,101486.56
2018-04-22T17:41:18.432Z,101493.25
2018-04-22T17:43:47.238Z,101496.27
2018-04-22T17:46:16.104Z,101488.94
2018-04-22T17:48:44.657Z,101488.20
2018-04-22T17:51:14.111Z,101487.43
2018-04-22T17:53:42.543Z,101489.66
2018-04-22T17:56:22.602Z,101488.91
2018-04-22T17:58:51.569Z,101493.04
2018-04-22T18:01:19.946Z,101491.02
2018-04-22T18:03:49.355Z,101490.17
2018-04-22T18:06:17.799Z,101497.39
2018-04-22T18:08:47.054Z,101501.09
2018-04-22T18:11:16.053Z,101502.67
2018-04-22T18:13:44.665Z,101505.72
2018-04-22T18:16:13.565Z,101506.20
2018-04-22T18:18:42.121Z,101509.92
2018-04-22T18:21:10.725Z,101510.63
2018-04-22T18:23:39.084Z,101519.21
2018-04-22T18:26:07.650Z,101523.76
2018-04-22T18:28:36.043Z,101526.56
2018-04-22T18:31:05.102Z,101521.92
2018-04-22T18:33:34.263Z,101523.64
2018-04-22T18:36:02.889Z,101525.67
2018-04-22T18:38:32.173Z,101529.27
2018-04-22T18:41:00.543Z,101522.58
2018-04-22T18:43:30.839Z,101528.41
2018-04-22T18:46:01.081Z,101522.81
2018-04-22T18:48:29.455Z,101532.83
2018-04-22T18:50:58.123Z,101530.57
2018-04-22T18:53:27.252Z,101524.64
2018-04-22T18:55:55.633Z,101526.83
2018-04-22T18:58:24.063Z,101525.55
2018-04-22T19:00:52.680Z,101517.33
2018-04-22T19:03:28.703Z,101516.65
2018-04-22T19:05:57.711Z,101515.30
2018-04-22T19:08:26.087Z,101519.91
2018-04-22T19:10:55.662Z,101513.12
2018-04-22T19:13:25.433Z,101512.13
2018-04-22T19:15:53.804Z,101513.17
2018-04-22T19:18:22.204Z,101512.16
2018-04-22T19:20:50.572Z,101514.45
2018-04-22T19:23:19.042Z,101510.07
2018-04-22T19:25:47.485Z,101510.00
2018-04-22T19:28:15.855Z,101506.66
2018-04-22T19:30:45.046Z,101502.94
2018-04-22T19:33:17.373Z,101502.23
2018-04-22T19:35:46.030Z,101502.19
2018-04-22T19:38:14.823Z,101493.88
2018-04-22T19:40:43.262Z,101501.31
2018-04-22T19:43:12.180Z,101501.70
2018-04-22T19:45:40.549Z,101506.28
2018-04-22T19:48:09.509Z,101516.69
2018-04-22T19:50:37.962Z,101513.57
2018-04-22T19:53:06.879Z,101509.00
2018-04-22T19:55:35.284Z,101516.98
2018-04-22T19:58:03.946Z,101510.52
2018-04-22T20:00:33.206Z,101513.84
2018-04-22T20:03:06.865Z,101503.36
2018-04-22T20:05:35.476Z,101503.36
2018-04-22T20:08:03.850Z,101497.96
2018-04-22T20:10:32.273Z,101499.62
2018-04-22T20:13:00.656Z,101503.64
2018-04-22T20:15:29.591Z,101501.77
2018-04-22T20:17:57.970Z,101494.25
2018-04-22T20:20:26.324Z,101503.64
2018-04-22T20:22:54.796Z,101498.69
2018-04-22T20:25:23.238Z,101495.00
2018-04-22T20:27:51.667Z,101491.33
2018-04-22T20:30:20.074Z,101492.35
2018-04-22T20:32:48.427Z,101483.22
2018-04-22T20:35:16.795Z,101489.87
2018-04-22T20:37:55.091Z,101482.37
2018-04-22T20:40:25.031Z,101485.99
2018-04-22T20:42:53.395Z,101485.34
2018-04-22T20:45:21.816Z,101491.13
2018-04-22T20:47:50.577Z,101491.79
2018-04-22T20:50:18.970Z,101489.80
2018-04-22T20:52:47.340Z,101494.53
2018-04-22T20:55:16.094Z,101489.48
2018-04-22T20:57:44.530Z,101495.08
2018-04-22T21:00:12.881Z,101500.33
2018-04-22T21:02:41.333Z,101502.17
2018-04-22T21:05:09.833Z,101501.09
2018-04-22T21:07:38.279Z,101499.16
2018-04-22T21:10:06.780Z,101495.73
2018-04-22T21:12:35.322Z,101494.11
2018-04-22T21:15:03.824Z,101498.84
2018-04-22T21:17:33.076Z,101498.36
2018-04-22T21:20:02.431Z,101499.18
2018-04-22T21:22:31.008Z,101506.88
2018-04-22T21:24:59.378Z,101508.27
2018-04-22T21:27:27.797Z,101505.41
2018-04-22T21:29:56.250Z,101509.98
2018-04-22T21:32:24.732Z,101514.30
2018-04-22T21:34:54.628Z,101510.17
2018-04-22T21:37:23.361Z,101509.75
2018-04-22T21:39:51.819Z,101512.37
2018-04-22T21:42:20.445Z,101518.08
2018-04-22T21:44:48.892Z,101508.47
2018-04-22T21:47:17.467Z,101513.47
2018-04-22T21:49:45.811Z,101510.66
2018-04-22T21:52:14.209Z,101506.97
2018-04-22T21:54:42.567Z,101503.58
2018-04-22T21:57:10.920Z,101506.54
2018-04-22T21:59:39.580Z,101510.95
2018-04-22T22:02:08.410Z,101506.80
2018-04-22T22:04:36.865Z,101503.58
2018-04-22T22:07:05.255Z,101495.66
2018-04-22T22:09:33.648Z,101491.09
2018-04-22T22:12:02.587Z,101491.94
2018-04-22T22:14:31.199Z,101496.31
2018-04-22T22:16:59.544Z,101490.10
2018-04-22T22:19:28.448Z,101485.52
2018-04-22T22:21:57.431Z,101488.12
2018-04-22T22:24:26.273Z,101493.14
2018-04-22T22:26:54.633Z,101487.64
2018-04-22T22:29:23.187Z,101484.59
2018-04-22T22:31:52.279Z,101480.19
2018-04-22T22:34:21.188Z,101480.98
2018-04-22T22:36:50.255Z,101479.59
2018-04-22T22:39:19.115Z,101483.30
2018-04-22T22:41:48.065Z,101479.42
2018-04-22T22:44:16.504Z,101484.23
2018-04-22T22:46:45.023Z,101480.50
2018-04-22T22:49:13.507Z,101476.89
2018-04-22T22:51:41.893Z,101470.77
2018-04-22T22:54:10.912Z,101471.17
2018-04-22T22:56:39.267Z,101467.33
2018-04-22T22:59:07.816Z,101464.80
2018-04-22T23:01:36.583Z,101472.48
2018-04-22T23:04:05.572Z,101467.19
2018-04-22T23:06:33.922Z,101466.42
2018-04-22T23:09:02.274Z,101473.24
2018-04-22T23:11:30.629Z,101469.09
2018-04-22T23:13:59.055Z,101464.03
2018-04-22T23:16:27.409Z,101458.41
2018-04-22T23:18:55.843Z,101458.72
2018-04-22T23:21:24.811Z,101464.17
2018-04-22T23:23:53.298Z,101457.52
2018-04-22T23:26:21.640Z,101460.89
2018-04-22T23:28:49.987Z,101456.73
2018-04-22T23:31:18.983Z,101465.53
2018-04-22T23:33:47.362Z,101470.20
2018-04-22T23:36:15.715Z,101471.13
2018-04-22T23:38:44.212Z,101467.34
2018-04-22T23:41:12.605Z,101464.89
2018-04-22T23:43:41.976Z,101462.43
2018-04-22T23:46:10.547Z,101463.70
2018-04-22T23:48:39.063Z,101466.23
2018-04-22T23:51:07.772Z,101462.44
2018-04-22T23:53:36.149Z,101453.59
2018-04-22T23:56:05.301Z,101447.70
2018-04-22T23:58:34.407Z,101445.22
